Aviation Digital Data Service (ADDS)

Output produced by METARs form (1342 UTC 26 May 2018)
found at http://www.aviationweather.gov/adds/metars/
 
DXXX 261300Z 21012KT 9999 FEW015 30/25 Q1011 NOSIG
TAF DXXX 260500Z 2606/2712 VRB03KT 9999 FEW010 
     BECMG 2609/2611 20010KT 
     TEMPO 2615/2621 TS BKN013 FEW020CB 
     BECMG 2622/2624 26005KT
       
DXNG 261300Z 27004KT 210V360 CAVOK 30/20 Q1012 NOSIG
TAF DXNG 261100Z 2612/2712 20008KT 9999 FEW010 
     PROB30 
     TEMPO 2614/2619 TS BKN006 FEW016CB